Time;durP1;ratioP1;P1;durP2;ratioP2;P2;SDS_P1;SDS_P2;PMS_P1;PMS_P2;Temp;Humidity;BMP_temperature;BMP_pressure;BME280_temperature;BME280_humidity;BME280_pressure;Samples;Min_cycle;Max_cycle;Signal;HPM_P1;HPM_P2
2021/09/18 00:00:25;;;;;;;5.20;4.00;;;18.70;52.60;;;;;;4882652;29;20168;-81
2021/09/18 00:02:51;;;;;;;5.07;3.85;;;18.70;52.60;;;;;;4882822;29;20163;-82
2021/09/18 00:05:16;;;;;;;5.45;3.83;;;18.70;52.60;;;;;;4883047;29;20164;-81
2021/09/18 00:07:42;;;;;;;5.82;4.10;;;18.70;52.60;;;;;;4882591;29;20190;-82
2021/09/18 00:10:08;;;;;;;5.85;4.10;;;18.70;52.60;;;;;;4898430;29;20550;-82
2021/09/18 00:12:34;;;;;;;6.55;4.32;;;18.70;52.60;;;;;;4899475;29;20163;-81
2021/09/18 00:15:01;;;;;;;5.65;3.95;;;18.70;52.60;;;;;;4899465;29;20522;-82
2021/09/18 00:17:28;;;;;;;5.05;4.25;;;18.70;52.60;;;;;;4899344;29;20148;-82
2021/09/18 00:19:54;;;;;;;6.05;4.28;;;18.70;52.60;;;;;;4882639;29;20242;-81
2021/09/18 00:22:19;;;;;;;5.13;4.18;;;18.70;52.60;;;;;;4899059;29;20163;-81
2021/09/18 00:24:45;;;;;;;4.95;4.18;;;18.70;52.60;;;;;;4899606;29;20175;-81
2021/09/18 00:27:11;;;;;;;5.72;4.13;;;18.70;52.60;;;;;;4898006;29;20304;-82
2021/09/18 00:29:36;;;;;;;5.97;4.22;;;18.70;52.60;;;;;;4899009;29;20627;-81
2021/09/18 00:32:02;;;;;;;5.40;4.18;;;18.70;52.60;;;;;;4898930;29;20175;-82
2021/09/18 00:34:28;;;;;;;7.25;4.50;;;18.70;52.60;;;;;;4866652;29;20164;-81
2021/09/18 00:36:54;;;;;;;5.53;4.18;;;18.70;52.60;;;;;;4883022;29;20212;-83
2021/09/18 00:39:19;;;;;;;4.82;4.00;;;18.70;52.70;;;;;;4898090;29;20187;-81
2021/09/18 00:41:45;;;;;;;4.60;3.80;;;18.70;52.70;;;;;;4899029;29;20186;-83
2021/09/18 00:44:16;;;;;;;5.43;4.00;;;18.70;52.70;;;;;;4882246;29;20239;-82
2021/09/18 00:46:42;;;;;;;5.80;4.38;;;18.70;52.70;;;;;;4897990;29;20167;-80
2021/09/18 00:49:07;;;;;;;5.15;4.00;;;18.70;52.70;;;;;;4897319;29;20219;-82
2021/09/18 00:51:33;;;;;;;5.28;4.10;;;18.70;52.70;;;;;;4882119;29;20271;-82
2021/09/18 00:53:59;;;;;;;5.25;4.25;;;18.70;52.70;;;;;;4897893;29;20612;-81
2021/09/18 00:56:24;;;;;;;5.55;4.10;;;18.70;52.70;;;;;;4882258;29;20238;-83
2021/09/18 00:58:50;;;;;;;6.05;4.28;;;18.70;52.70;;;;;;4902021;29;20538;-81
2021/09/18 01:01:16;;;;;;;5.50;4.28;;;18.70;52.70;;;;;;4885898;29;20164;-81
2021/09/18 01:03:43;;;;;;;4.82;4.03;;;18.70;52.70;;;;;;4885672;29;20168;-80
2021/09/18 01:06:09;;;;;;;4.60;3.78;;;18.70;52.70;;;;;;4901101;29;20183;-82
2021/09/18 01:08:35;;;;;;;5.75;4.40;;;18.60;52.70;;;;;;4869986;29;20254;-80
2021/09/18 01:11:01;;;;;;;5.18;4.03;;;18.60;52.70;;;;;;4885888;29;20169;-81
2021/09/18 01:13:27;;;;;;;6.03;4.10;;;18.60;52.70;;;;;;4885268;29;20170;-81
2021/09/18 01:15:53;;;;;;;5.50;4.13;;;18.70;52.80;;;;;;4901291;29;20538;-82
2021/09/18 01:18:18;;;;;;;5.60;4.35;;;18.70;52.80;;;;;;4901292;29;20163;-81
2021/09/18 01:20:46;;;;;;;4.50;3.75;;;18.70;52.80;;;;;;4901781;29;20171;-82
2021/09/18 01:23:19;;;;;;;5.32;4.07;;;18.70;52.80;;;;;;4902155;29;20190;-82
2021/09/18 01:25:45;;;;;;;4.72;3.80;;;18.70;52.80;;;;;;4885556;29;20174;-80
2021/09/18 01:28:11;;;;;;;5.25;4.40;;;18.70;52.80;;;;;;4901939;29;20191;-80
2021/09/18 01:30:36;;;;;;;4.95;3.97;;;18.70;52.80;;;;;;4900732;29;20160;-81
2021/09/18 01:33:03;;;;;;;5.57;4.20;;;18.70;52.80;;;;;;4885269;29;20164;-80
2021/09/18 01:35:29;;;;;;;5.32;4.10;;;18.70;52.80;;;;;;4885290;29;20183;-81
2021/09/18 01:37:55;;;;;;;5.88;4.30;;;18.70;52.90;;;;;;4885620;29;20595;-83
2021/09/18 01:40:24;;;;;;;6.18;4.15;;;18.70;52.90;;;;;;4885710;29;20163;-82
2021/09/18 01:42:51;;;;;;;5.75;4.25;;;18.70;52.90;;;;;;4886004;29;20156;-83
2021/09/18 01:45:17;;;;;;;5.60;4.25;;;18.70;52.90;;;;;;4900332;29;20171;-83
2021/09/18 01:47:49;;;;;;;5.45;4.20;;;18.70;52.90;;;;;;4900573;29;20172;-81
2021/09/18 01:50:21;;;;;;;6.00;4.10;;;18.70;52.90;;;;;;4885289;29;20222;-82
2021/09/18 01:52:47;;;;;;;5.80;4.10;;;18.70;52.90;;;;;;4885030;29;20167;-82
2021/09/18 01:55:14;;;;;;;6.05;4.35;;;18.70;52.90;;;;;;4900445;29;20195;-80
2021/09/18 01:57:44;;;;;;;4.85;3.70;;;18.70;52.90;;;;;;4884845;29;20529;-80
2021/09/18 02:00:12;;;;;;;6.35;4.28;;;18.70;52.90;;;;;;4869473;29;20227;-82
2021/09/18 02:02:38;;;;;;;5.47;4.00;;;18.70;52.90;;;;;;4885077;29;20190;-83
2021/09/18 02:05:04;;;;;;;5.30;4.07;;;18.70;52.90;;;;;;4884356;29;20686;-83
2021/09/18 02:07:30;;;;;;;5.32;4.13;;;18.70;52.90;;;;;;4883679;29;20531;-83
2021/09/18 02:09:55;;;;;;;5.40;3.88;;;18.70;52.90;;;;;;4898968;29;20654;-82
2021/09/18 02:12:21;;;;;;;5.45;3.80;;;18.70;52.90;;;;;;4883682;29;20560;-83
2021/09/18 02:14:47;;;;;;;5.70;4.13;;;18.60;52.90;;;;;;4899209;29;20512;-81
2021/09/18 02:17:12;;;;;;;4.88;3.90;;;18.70;52.90;;;;;;4914886;29;20576;-81
2021/09/18 02:19:38;;;;;;;5.53;4.28;;;18.70;53.00;;;;;;4899083;29;20167;-81
2021/09/18 02:22:03;;;;;;;4.25;3.63;;;18.70;53.00;;;;;;4899203;29;20170;-82
2021/09/18 02:24:29;;;;;;;5.35;4.30;;;18.70;53.00;;;;;;4900679;29;20548;-83
2021/09/18 02:26:55;;;;;;;5.20;4.25;;;18.70;53.00;;;;;;4900250;29;20528;-81
2021/09/18 02:29:20;;;;;;;5.35;4.18;;;18.70;53.00;;;;;;4883446;29;20213;-80
2021/09/18 02:31:46;;;;;;;6.03;4.20;;;18.70;53.00;;;;;;4898865;29;20268;-81
2021/09/18 02:34:11;;;;;;;5.65;4.50;;;18.60;53.00;;;;;;4898952;29;20207;-82
2021/09/18 02:36:37;;;;;;;5.30;3.92;;;18.60;52.90;;;;;;4898707;29;20168;-81
2021/09/18 02:39:03;;;;;;;5.05;3.80;;;18.70;53.00;;;;;;4898755;29;20554;-80
2021/09/18 02:41:28;;;;;;;5.68;3.90;;;18.70;53.00;;;;;;4883384;29;20160;-83
2021/09/18 02:43:54;;;;;;;5.30;4.07;;;18.70;53.00;;;;;;4898930;29;20198;-81
2021/09/18 02:46:22;;;;;;;6.38;4.15;;;18.60;53.00;;;;;;4898668;29;20167;-83
2021/09/18 02:48:47;;;;;;;5.00;3.70;;;18.70;53.00;;;;;;4882998;29;20238;-81
2021/09/18 02:51:13;;;;;;;4.88;4.00;;;18.70;53.00;;;;;;4883065;29;20170;-79
2021/09/18 02:53:39;;;;;;;5.50;3.78;;;18.70;53.10;;;;;;4883311;29;20678;-82
2021/09/18 02:56:04;;;;;;;5.28;4.00;;;18.60;53.00;;;;;;4882912;29;20267;-82
2021/09/18 02:58:30;;;;;;;5.30;3.83;;;18.60;53.00;;;;;;4882853;29;20533;-81
2021/09/18 03:00:56;;;;;;;5.38;3.85;;;18.70;53.00;;;;;;4867457;29;20179;-82
2021/09/18 03:03:21;;;;;;;5.07;3.83;;;18.70;53.00;;;;;;4882826;29;20176;-81
2021/09/18 03:05:47;;;;;;;5.55;4.30;;;18.70;53.00;;;;;;4882920;29;20211;-82
2021/09/18 03:08:13;;;;;;;5.80;4.10;;;18.70;53.00;;;;;;4899316;29;20219;-81
2021/09/18 03:10:38;;;;;;;5.22;4.00;;;18.70;53.00;;;;;;4899406;29;20168;-82
2021/09/18 03:13:04;;;;;;;4.78;3.90;;;18.70;53.10;;;;;;4867088;29;20183;-81
2021/09/18 03:15:29;;;;;;;4.97;3.90;;;18.70;53.10;;;;;;4867120;29;20242;-82
2021/09/18 03:17:57;;;;;;;6.00;4.38;;;18.70;53.10;;;;;;4882455;29;20167;-81
2021/09/18 03:20:23;;;;;;;5.18;3.85;;;18.70;53.10;;;;;;4867041;29;20206;-82
2021/09/18 03:22:49;;;;;;;5.72;4.00;;;18.70;53.10;;;;;;4899152;29;20623;-82
2021/09/18 03:25:14;;;;;;;5.03;3.90;;;18.60;53.10;;;;;;4867117;29;20221;-82
2021/09/18 03:27:40;;;;;;;5.40;3.92;;;18.60;53.10;;;;;;4851829;29;20176;-82
2021/09/18 03:30:06;;;;;;;5.13;3.97;;;18.60;53.10;;;;;;4866850;29;20192;-81
2021/09/18 03:32:32;;;;;;;5.68;4.25;;;18.70;53.10;;;;;;4899173;29;20187;-81
2021/09/18 03:34:57;;;;;;;4.70;3.80;;;18.60;53.10;;;;;;4898752;29;20611;-80
2021/09/18 03:37:23;;;;;;;4.55;3.95;;;18.70;53.20;;;;;;4882246;29;20152;-81
2021/09/18 03:39:49;;;;;;;5.70;3.92;;;18.60;53.10;;;;;;4867264;29;20167;-80
2021/09/18 03:42:14;;;;;;;5.80;4.00;;;18.60;53.10;;;;;;4898889;29;20187;-81
2021/09/18 03:44:40;;;;;;;5.10;3.90;;;18.60;53.10;;;;;;4882222;29;20165;-82
2021/09/18 03:47:06;;;;;;;5.40;4.30;;;18.60;53.10;;;;;;4882014;29;20167;-81
2021/09/18 03:49:31;;;;;;;5.05;4.05;;;18.60;53.20;;;;;;4870686;29;20597;-81
2021/09/18 03:51:57;;;;;;;4.85;3.80;;;18.60;53.20;;;;;;4882219;29;20181;-83
2021/09/18 03:54:23;;;;;;;4.25;3.38;;;18.60;53.20;;;;;;4881953;29;20258;-82
2021/09/18 03:56:50;;;;;;;5.80;4.18;;;18.60;53.20;;;;;;4866750;29;20556;-81
2021/09/18 03:59:17;;;;;;;5.78;3.60;;;18.60;53.20;;;;;;4867593;29;20171;-82
2021/09/18 04:01:42;;;;;;;4.82;3.80;;;18.70;53.20;;;;;;4882022;29;20168;-82
2021/09/18 04:04:08;;;;;;;4.80;3.80;;;18.70;53.20;;;;;;4882127;29;20649;-80
2021/09/18 04:06:34;;;;;;;5.20;4.00;;;18.60;53.20;;;;;;4897572;29;20657;-82
2021/09/18 04:08:59;;;;;;;5.47;4.18;;;18.60;53.20;;;;;;4881524;29;20570;-82
2021/09/18 04:11:25;;;;;;;4.55;3.85;;;18.60;53.20;;;;;;4866358;29;20167;-81
2021/09/18 04:13:51;;;;;;;4.63;3.67;;;18.70;53.30;;;;;;4881830;29;20195;-83
2021/09/18 04:16:20;;;;;;;5.43;4.00;;;18.70;53.30;;;;;;4898631;29;20156;-82
2021/09/18 04:18:46;;;;;;;5.57;4.20;;;18.60;53.20;;;;;;4882068;29;20164;-82
2021/09/18 04:21:12;;;;;;;4.78;3.80;;;18.70;53.30;;;;;;4897206;29;20176;-82
2021/09/18 04:23:37;;;;;;;4.50;3.58;;;18.70;53.30;;;;;;4897404;29;20196;-83
2021/09/18 04:26:03;;;;;;;5.05;4.05;;;18.70;53.30;;;;;;4897187;29;20211;-83
2021/09/18 04:28:29;;;;;;;5.57;4.35;;;18.70;53.30;;;;;;4898367;29;20187;-80
2021/09/18 04:30:54;;;;;;;4.53;3.85;;;18.70;53.30;;;;;;4882223;29;20163;-83
2021/09/18 04:33:20;;;;;;;5.15;3.72;;;18.70;54.00;;;;;;4902733;29;20163;-81
2021/09/18 04:35:46;;;;;;;5.18;4.25;;;18.60;53.30;;;;;;4902323;29;20159;-81
2021/09/18 04:38:11;;;;;;;5.00;3.70;;;18.60;53.20;;;;;;4901316;29;20167;-82
2021/09/18 04:40:37;;;;;;;4.50;3.53;;;18.70;53.30;;;;;;4885354;29;20574;-81
2021/09/18 04:43:03;;;;;;;5.45;3.78;;;18.60;53.30;;;;;;4885303;29;20167;-82
2021/09/18 04:45:28;;;;;;;5.40;4.10;;;18.70;53.30;;;;;;4901238;29;20216;-81
2021/09/18 04:47:54;;;;;;;4.78;3.80;;;18.70;53.30;;;;;;4901850;29;20223;-81
2021/09/18 04:50:20;;;;;;;5.25;4.00;;;18.60;53.30;;;;;;4901394;29;20338;-81
2021/09/18 04:52:46;;;;;;;5.20;4.05;;;18.60;53.30;;;;;;4900486;29;20155;-82
2021/09/18 04:55:12;;;;;;;4.47;3.55;;;18.70;53.30;;;;;;4900517;29;20671;-81
2021/09/18 04:57:37;;;;;;;4.80;3.72;;;18.70;53.30;;;;;;4885593;29;20171;-82
2021/09/18 05:00:04;;;;;;;5.35;3.67;;;18.60;53.30;;;;;;4901878;29;20648;-81
2021/09/18 05:02:29;;;;;;;5.05;4.03;;;18.70;53.40;;;;;;4900344;29;20171;-81
2021/09/18 05:04:55;;;;;;;4.85;3.90;;;18.60;53.40;;;;;;4901484;29;20160;-83
2021/09/18 05:07:22;;;;;;;4.93;4.03;;;18.70;53.40;;;;;;4901224;29;20164;-81
2021/09/18 05:09:48;;;;;;;5.20;3.88;;;18.70;53.40;;;;;;4884800;29;20615;-81
2021/09/18 05:12:13;;;;;;;5.70;4.10;;;18.70;53.30;;;;;;4901184;29;20550;-84
2021/09/18 05:14:39;;;;;;;4.55;3.85;;;18.60;53.30;;;;;;4915552;29;20263;-82
2021/09/18 05:17:05;;;;;;;4.57;3.78;;;18.70;53.30;;;;;;4900686;29;20212;-84
2021/09/18 05:19:30;;;;;;;5.32;4.00;;;18.70;53.30;;;;;;4900136;29;20174;-80
2021/09/18 05:21:56;;;;;;;4.75;3.60;;;18.60;53.30;;;;;;4899949;29;20649;-81
2021/09/18 05:24:22;;;;;;;4.35;3.55;;;18.70;53.30;;;;;;4900048;29;20163;-81
2021/09/18 05:26:47;;;;;;;5.60;4.25;;;18.70;53.40;;;;;;4900018;29;20168;-81
2021/09/18 05:29:13;;;;;;;4.78;3.58;;;18.70;53.40;;;;;;4900118;29;20198;-80
2021/09/18 05:31:39;;;;;;;4.90;3.70;;;18.60;53.30;;;;;;4900577;29;20163;-83
2021/09/18 05:34:04;;;;;;;5.30;3.92;;;18.70;53.40;;;;;;4884422;29;20267;-82
2021/09/18 05:36:30;;;;;;;4.93;3.80;;;18.70;53.40;;;;;;4899582;29;20168;-81
2021/09/18 05:38:56;;;;;;;4.95;3.97;;;18.60;53.30;;;;;;4900889;29;20160;-81
2021/09/18 05:41:22;;;;;;;4.57;3.65;;;18.70;53.40;;;;;;4899953;29;20167;-83
2021/09/18 05:43:47;;;;;;;4.68;3.63;;;18.70;53.30;;;;;;4899926;29;20254;-81
2021/09/18 05:46:13;;;;;;;5.43;4.13;;;18.60;53.30;;;;;;4900779;29;20240;-82
2021/09/18 05:48:38;;;;;;;4.75;4.03;;;18.70;53.30;;;;;;4914407;29;20544;-81
2021/09/18 05:51:04;;;;;;;4.57;3.58;;;18.70;53.30;;;;;;4865563;29;20247;-82
2021/09/18 05:53:30;;;;;;;4.82;3.60;;;18.70;53.30;;;;;;4849858;29;20175;-80
2021/09/18 05:55:55;;;;;;;4.63;3.50;;;18.70;53.30;;;;;;4881786;29;20587;-82
2021/09/18 05:58:21;;;;;;;6.07;3.60;;;18.60;53.30;;;;;;4865078;29;20183;-83
2021/09/18 06:00:47;;;;;;;5.90;4.10;;;18.70;53.30;;;;;;4865008;29;20535;-80
2021/09/18 06:03:12;;;;;;;4.47;3.72;;;18.70;53.30;;;;;;4849613;29;20172;-82
2021/09/18 06:05:38;;;;;;;4.97;3.50;;;18.70;53.30;;;;;;4865776;29;20588;-81
2021/09/18 06:08:04;;;;;;;4.45;3.80;;;18.70;53.30;;;;;;4864908;29;20239;-81
2021/09/18 06:10:29;;;;;;;4.65;3.53;;;18.60;53.30;;;;;;4864799;29;20195;-81
2021/09/18 06:12:55;;;;;;;4.68;3.58;;;18.60;53.30;;;;;;4849774;29;20187;-82
2021/09/18 06:15:21;;;;;;;4.68;3.60;;;18.60;53.20;;;;;;4866897;29;20179;-81
2021/09/18 06:17:46;;;;;;;4.05;3.30;;;18.70;53.30;;;;;;4864852;29;20242;-79
2021/09/18 06:20:12;;;;;;;4.90;3.65;;;18.70;53.20;;;;;;4864674;29;20261;-82
2021/09/18 06:22:38;;;;;;;5.05;3.80;;;18.70;53.20;;;;;;4864906;29;20205;-81
2021/09/18 06:25:05;;;;;;;4.85;3.70;;;18.70;53.30;;;;;;4864968;29;20550;-81
2021/09/18 06:27:31;;;;;;;4.68;3.47;;;18.70;53.30;;;;;;4864536;29;20172;-81
2021/09/18 06:29:57;;;;;;;4.82;3.55;;;18.60;54.00;;;;;;4864702;29;20180;-80
2021/09/18 06:32:22;;;;;;;4.70;3.70;;;18.70;53.20;;;;;;4849495;29;20172;-83
2021/09/18 06:34:48;;;;;;;4.93;3.60;;;18.70;53.20;;;;;;4864654;29;20585;-81
2021/09/18 06:37:14;;;;;;;4.40;3.38;;;18.70;53.00;;;;;;4864860;29;20176;-80
2021/09/18 06:39:39;;;;;;;4.10;3.25;;;18.70;53.10;;;;;;4850926;29;20608;-81
2021/09/18 06:42:05;;;;;;;4.63;3.75;;;18.70;53.10;;;;;;4864327;29;20165;-80
2021/09/18 06:44:31;;;;;;;4.13;3.35;;;18.70;53.20;;;;;;4881723;29;20584;-80
2021/09/18 06:46:56;;;;;;;5.38;3.83;;;18.70;53.10;;;;;;4865735;29;20678;-81
2021/09/18 06:49:22;;;;;;;4.97;3.83;;;18.70;53.20;;;;;;4851425;29;20227;-82
2021/09/18 06:51:48;;;;;;;5.03;3.60;;;18.70;53.20;;;;;;4861895;29;20169;-82
2021/09/18 06:54:13;;;;;;;4.57;3.40;;;18.70;53.00;;;;;;4864698;29;20201;-82
2021/09/18 06:56:39;;;;;;;4.45;3.20;;;18.70;53.00;;;;;;4831237;29;20184;-83
2021/09/18 06:59:05;;;;;;;4.68;3.13;;;18.80;52.90;;;;;;4849904;29;20191;-82
2021/09/18 07:01:32;;;;;;;4.20;3.45;;;18.80;52.90;;;;;;4870969;29;20187;-79
2021/09/18 07:03:58;;;;;;;4.20;3.33;;;18.80;52.90;;;;;;4868134;29;20172;-84
2021/09/18 07:06:24;;;;;;;4.63;3.00;;;18.80;52.80;;;;;;4882526;29;20180;-81
2021/09/18 07:08:50;;;;;;;4.38;3.30;;;18.80;53.00;;;;;;4895699;29;20266;-83
2021/09/18 07:11:15;;;;;;;4.15;3.13;;;18.70;53.30;;;;;;4887707;29;20175;-80
2021/09/18 07:13:41;;;;;;;6.03;3.30;;;18.80;53.40;;;;;;4886955;29;20231;-82
2021/09/18 07:16:07;;;;;;;6.68;3.28;;;18.80;53.40;;;;;;4886569;29;20156;-86
2021/09/18 07:18:32;;;;;;;7.50;3.67;;;18.80;53.50;;;;;;4887274;29;20168;-81
2021/09/18 07:20:58;;;;;;;7.47;3.40;;;18.80;53.80;;;;;;4888349;29;20627;-82
2021/09/18 07:23:24;;;;;;;5.40;3.35;;;18.80;55.00;;;;;;4872992;29;20204;-81
2021/09/18 07:25:50;;;;;;;7.25;3.55;;;18.80;54.10;;;;;;4872609;29;20175;-82
2021/09/18 07:28:16;;;;;;;4.15;3.33;;;18.80;54.40;;;;;;4861463;29;20215;-80
2021/09/18 07:30:41;;;;;;;6.57;3.15;;;18.80;54.20;;;;;;4847835;29;20173;-81
2021/09/18 07:33:07;;;;;;;4.50;3.22;;;18.80;54.00;;;;;;4864608;29;20182;-80
2021/09/18 07:35:33;;;;;;;4.45;3.38;;;18.70;53.70;;;;;;4883689;29;20241;-83
2021/09/18 07:38:03;;;;;;;5.78;3.10;;;18.70;53.80;;;;;;4883611;29;20170;-81
2021/09/18 07:40:29;;;;;;;6.00;3.28;;;18.80;53.60;;;;;;4899477;29;20234;-83
2021/09/18 07:42:55;;;;;;;4.38;3.30;;;18.80;53.90;;;;;;4886117;29;20163;-82
2021/09/18 07:45:21;;;;;;;5.15;3.25;;;18.80;53.90;;;;;;4869892;29;20171;-81
2021/09/18 07:47:48;;;;;;;7.68;3.78;;;18.80;54.10;;;;;;4871100;29;20487;-81
2021/09/18 07:50:13;;;;;;;4.75;3.10;;;18.80;54.10;;;;;;4916580;29;20286;-82
2021/09/18 07:52:40;;;;;;;9.25;3.33;;;18.80;54.30;;;;;;4876894;29;20170;-80
2021/09/18 07:55:07;;;;;;;5.20;2.65;;;18.80;53.90;;;;;;4907657;29;20155;-81
2021/09/18 07:57:34;;;;;;;5.38;3.22;;;18.90;53.80;;;;;;4891319;29;20174;-83
2021/09/18 08:00:00;;;;;;;5.68;3.05;;;18.90;53.50;;;;;;4903702;29;20159;-82
2021/09/18 08:02:28;;;;;;;7.25;3.20;;;18.90;53.80;;;;;;4905397;29;20182;-82
2021/09/18 08:04:53;;;;;;;7.05;3.55;;;18.90;54.00;;;;;;4904792;29;20250;-83
2021/09/18 08:07:21;;;;;;;4.70;3.10;;;18.90;54.60;;;;;;4904911;29;20206;-80
2021/09/18 08:09:48;;;;;;;7.85;2.90;;;19.00;53.90;;;;;;4889362;29;20191;-81
2021/09/18 08:12:15;;;;;;;4.57;3.28;;;18.90;53.90;;;;;;4893580;29;20163;-80
2021/09/18 08:14:44;;;;;;;9.05;3.38;;;19.00;54.20;;;;;;4891279;29;20183;-81
2021/09/18 08:17:10;;;;;;;7.18;3.42;;;19.00;53.70;;;;;;4888703;29;20159;-81
2021/09/18 08:19:39;;;;;;;6.40;2.92;;;18.90;53.60;;;;;;4890474;29;20163;-81
2021/09/18 08:22:06;;;;;;;4.15;3.20;;;19.00;54.00;;;;;;4889951;29;20179;-80
2021/09/18 08:24:31;;;;;;;7.57;3.50;;;18.90;54.20;;;;;;4893566;29;20262;-79
2021/09/18 08:26:57;;;;;;;6.53;3.60;;;19.00;54.40;;;;;;4890480;29;20246;-80
2021/09/18 08:29:23;;;;;;;6.50;3.25;;;19.00;54.60;;;;;;4888873;29;20186;-79
2021/09/18 08:31:48;;;;;;;11.63;3.28;;;19.00;54.50;;;;;;4900861;29;20242;-81
2021/09/18 08:34:14;;;;;;;7.45;2.85;;;19.00;54.20;;;;;;4893276;29;20164;-82
2021/09/18 08:36:40;;;;;;;8.65;3.33;;;19.10;54.00;;;;;;4884418;29;20159;-81
2021/09/18 08:39:05;;;;;;;5.93;3.17;;;19.00;53.90;;;;;;4886835;29;20167;-82
2021/09/18 08:41:32;;;;;;;6.47;3.65;;;19.00;54.40;;;;;;4904413;29;20170;-80
2021/09/18 08:44:00;;;;;;;5.60;3.45;;;19.00;54.60;;;;;;4889666;29;20179;-81
2021/09/18 08:46:26;;;;;;;7.30;3.53;;;19.00;54.40;;;;;;4890123;29;20246;-80
2021/09/18 08:48:53;;;;;;;6.05;3.15;;;19.00;54.50;;;;;;4873941;29;20202;-80
2021/09/18 08:51:20;;;;;;;6.88;3.13;;;19.00;54.40;;;;;;4890881;29;20159;-80
2021/09/18 08:53:45;;;;;;;9.15;3.50;;;19.10;54.40;;;;;;4904204;29;20551;-81
2021/09/18 08:56:15;;;;;;;7.35;3.58;;;19.00;54.50;;;;;;4900904;29;20194;-81
2021/09/18 08:58:41;;;;;;;8.15;3.42;;;19.10;54.60;;;;;;4880937;29;20547;-81
2021/09/18 09:01:06;;;;;;;6.47;3.47;;;19.10;54.00;;;;;;4901018;29;20187;-81
2021/09/18 09:03:35;;;;;;;6.63;3.55;;;19.10;54.60;;;;;;4884872;29;20498;-82
2021/09/18 09:06:13;;;;;;;7.88;3.42;;;19.00;54.50;;;;;;4885585;29;20176;-82
2021/09/18 09:08:40;;;;;;;6.93;3.50;;;19.10;55.60;;;;;;4885341;29;20635;-82
2021/09/18 09:11:19;;;;;;;15.23;3.45;;;19.10;54.40;;;;;;4882081;29;20155;-80
2021/09/18 09:14:02;;;;;;;12.18;3.25;;;19.10;54.90;;;;;;4883266;29;20160;-81
2021/09/18 09:16:29;;;;;;;10.88;3.40;;;19.00;54.00;;;;;;4885124;29;20159;-81
2021/09/18 09:18:55;;;;;;;13.27;3.53;;;19.00;54.50;;;;;;4896871;29;20529;-81
2021/09/18 09:21:25;;;;;;;7.70;3.22;;;19.10;54.90;;;;;;4892861;29;20597;-82
2021/09/18 09:24:04;;;;;;;13.38;3.67;;;19.00;55.10;;;;;;4902074;29;20176;-83
2021/09/18 09:26:32;;;;;;;8.45;3.63;;;19.00;55.00;;;;;;4890975;29;20186;-83
